Sagittarian — WCY5210 — position and weather

sailwx.info

Track history (hours):
 
Tides and Currents Weather Stations Pressure Air Temp Water Temp Dewpoint Dewpoint Depression Visibility Wind Speed Wind Dir Waves Ship Positions

Sagittarian

Owner: TAURUS MARINE, SAN FRANCISCO, CA. More information available from US FCC via Universal Licensing System and Coast Guard Vessel Documentation Center.

Last reported at 2015-May-25 19:25 UTC. Time now 2015-May-25 19:39 UTC.
Position N 37°56' W 122°27'.

; draft 3 m.

Type: Towing. MMSI: 366969510.

Date/timePositionNaut miles runAvg speedWind from/ knotsBaromVisibWave heightAir tempDewpointWater temp
2015-May-25 19:25N 37°56' W 122°27'3 3.2
2015-May-25 18:33N 37°54' W 122°25'8 7.7
2015-May-25 17:33N 37°46' W 122°23'0 0.0
2015-May-25 05:33N 37°46' W 122°23'6 6.0
2015-May-25 04:33N 37°49' W 122°30'1 1.1
2015-May-25 03:29N 37°49' W 122°31'6 6.3
2015-May-25 02:33N 37°52' W 122°25'3 3.1
2015-May-25 01:26N 37°55' W 122°25'0 0.1
2015-May-25 00:32N 37°55' W 122°25'9 9.3
2015-May-24 23:33N 37°47' W 122°23'0 0.0
2015-May-24 03:25N 37°46' W 122°23'7 7.5
2015-May-24 02:33N 37°53' W 122°25'2 2.5
2015-May-24 01:33N 37°55' W 122°25'1 0.9
2015-May-24 00:27N 37°55' W 122°26'9 9.5
2015-May-23 23:33N 37°46' W 122°23'0 0.0
2015-May-23 19:08N 37°46' W 122°23'5 8.0
2015-May-23 18:33N 37°51' W 122°24'4 4.5
2015-May-23 17:33N 37°55' W 122°25'1 1.1
2015-May-23 16:32N 37°55' W 122°26'8 8.1
2015-May-23 15:33N 37°47' W 122°23'0 0.0
2015-May-22 21:09N 37°46' W 122°23'5 8.9
2015-May-22 20:33N 37°52' W 122°24'4 2.0
2015-May-22 18:31N 37°55' W 122°26'0 0.1
2015-May-22 17:32N 37°55' W 122°26'10 7.7
2015-May-22 16:16N 38°03' W 122°19'3 0.4
2015-May-22 09:33N 38°04' W 122°15'11 5.5
2015-May-22 07:32N 37°57' W 122°27'4 4.4
2015-May-22 06:33N 37°53' W 122°25'4 3.6
2015-May-22 05:33N 37°49' W 122°25'3 3.1
2015-May-22 04:33N 37°48' W 122°29'1 0.7
2015-May-22 03:32N 37°48' W 122°30'0 0.2
2015-May-22 02:20N 37°48' W 122°30'2 3.0
2015-May-22 01:32N 37°49' W 122°27'4 0.1
2015-May-20 18:33N 37°46' W 122°23'8 8.3
2015-May-20 17:33N 37°55' W 122°26'1 0.9
2015-May-20 16:18N 37°55' W 122°25'3 3.6
2015-May-20 15:32N 37°53' W 122°24'6 6.3
2015-May-20 14:32N 37°46' W 122°23'3 0.1
2015-May-19 17:33N 37°49' W 122°23'6 5.7
2015-May-19 16:26N 37°55' W 122°25'1 1.6
2015-May-19 15:33N 37°55' W 122°26'1 1.4
2015-May-19 14:33N 37°53' W 122°26'3 2.6
2015-May-19 13:34N 37°51' W 122°24'5 0.2
2015-May-18 10:31N 37°46' W 122°23'3 3.4
2015-May-18 09:34N 37°50' W 122°24'5 5.2
2015-May-18 08:32N 37°55' W 122°22'3 2.0
2015-May-18 07:13N 37°55' W 122°25'2 2.8
2015-May-18 06:34N 37°54' W 122°24'7 6.8
2015-May-18 05:33N 37°47' W 122°23'0 0.0
2015-May-16 22:20N 37°46' W 122°23'3 3.5
2015-May-16 21:33N 37°49' W 122°25'1 1.0
2015-May-16 20:33N 37°49' W 122°24'3 1.6
2015-May-16 18:29N 37°49' W 122°29'3 3.0
2015-May-16 17:33N 37°49' W 122°25'3 2.6
2015-May-16 16:33N 37°47' W 122°23'  
Track history (hours):
 
Tides and Currents Weather Stations Pressure Air Temp Water Temp Dewpoint Dewpoint Depression Visibility Wind Speed Wind Dir Waves Ship Positions

Sagittarian

Owner: TAURUS MARINE, SAN FRANCISCO, CA. More information available from US FCC via Universal Licensing System and Coast Guard Vessel Documentation Center.

Last reported at 2015-May-25 19:25 UTC. Time now 2015-May-25 19:39 UTC.
Position N 37°56' W 122°27'.

; draft 3 m.

Type: Towing. MMSI: 366969510.

Date/timePositionNaut miles runAvg speedWind from/ knotsBaromVisibWave heightAir tempDewpointWater temp
2015-May-25 19:25N 37°56' W 122°27'3 3.2
2015-May-25 18:33N 37°54' W 122°25'8 7.7
2015-May-25 17:33N 37°46' W 122°23'0 0.0
2015-May-25 05:33N 37°46' W 122°23'6 6.0
2015-May-25 04:33N 37°49' W 122°30'1 1.1
2015-May-25 03:29N 37°49' W 122°31'6 6.3
2015-May-25 02:33N 37°52' W 122°25'3 3.1
2015-May-25 01:26N 37°55' W 122°25'0 0.1
2015-May-25 00:32N 37°55' W 122°25'9 9.3
2015-May-24 23:33N 37°47' W 122°23'0 0.0
2015-May-24 03:25N 37°46' W 122°23'7 7.5
2015-May-24 02:33N 37°53' W 122°25'2 2.5
2015-May-24 01:33N 37°55' W 122°25'1 0.9
2015-May-24 00:27N 37°55' W 122°26'9 9.5
2015-May-23 23:33N 37°46' W 122°23'0 0.0
2015-May-23 19:08N 37°46' W 122°23'5 8.0
2015-May-23 18:33N 37°51' W 122°24'4 4.5
2015-May-23 17:33N 37°55' W 122°25'1 1.1
2015-May-23 16:32N 37°55' W 122°26'8 8.1
2015-May-23 15:33N 37°47' W 122°23'0 0.0
2015-May-22 21:09N 37°46' W 122°23'5 8.9
2015-May-22 20:33N 37°52' W 122°24'4 2.0
2015-May-22 18:31N 37°55' W 122°26'0 0.1
2015-May-22 17:32N 37°55' W 122°26'10 7.7
2015-May-22 16:16N 38°03' W 122°19'3 0.4
2015-May-22 09:33N 38°04' W 122°15'11 5.5
2015-May-22 07:32N 37°57' W 122°27'4 4.4
2015-May-22 06:33N 37°53' W 122°25'4 3.6
2015-May-22 05:33N 37°49' W 122°25'3 3.1
2015-May-22 04:33N 37°48' W 122°29'1 0.7
2015-May-22 03:32N 37°48' W 122°30'0 0.2
2015-May-22 02:20N 37°48' W 122°30'2 3.0
2015-May-22 01:32N 37°49' W 122°27'4 0.1
2015-May-20 18:33N 37°46' W 122°23'8 8.3
2015-May-20 17:33N 37°55' W 122°26'1 0.9
2015-May-20 16:18N 37°55' W 122°25'3 3.6
2015-May-20 15:32N 37°53' W 122°24'6 6.3
2015-May-20 14:32N 37°46' W 122°23'3 0.1
2015-May-19 17:33N 37°49' W 122°23'6 5.7
2015-May-19 16:26N 37°55' W 122°25'1 1.6
2015-May-19 15:33N 37°55' W 122°26'1 1.4
2015-May-19 14:33N 37°53' W 122°26'3 2.6
2015-May-19 13:34N 37°51' W 122°24'5 0.2
2015-May-18 10:31N 37°46' W 122°23'3 3.4
2015-May-18 09:34N 37°50' W 122°24'5 5.2
2015-May-18 08:32N 37°55' W 122°22'3 2.0
2015-May-18 07:13N 37°55' W 122°25'2 2.8
2015-May-18 06:34N 37°54' W 122°24'7 6.8
2015-May-18 05:33N 37°47' W 122°23'0 0.0
2015-May-16 22:20N 37°46' W 122°23'3 3.5
2015-May-16 21:33N 37°49' W 122°25'1 1.0
2015-May-16 20:33N 37°49' W 122°24'3 1.6
2015-May-16 18:29N 37°49' W 122°29'3 3.0
2015-May-16 17:33N 37°49' W 122°25'3 2.6
2015-May-16 16:33N 37°47' W 122°23'  

Dump ship's entire track history